createdAt,value
2017-03-01T00:00:19.107Z,0
2017-03-01T00:01:33.540Z,0
2017-03-01T00:02:47.976Z,0
2017-03-01T00:04:02.226Z,0
2017-03-01T00:05:16.221Z,0
2017-03-01T00:06:30.442Z,0
2017-03-01T00:07:45.313Z,0
2017-03-01T00:09:00.456Z,0
2017-03-01T00:10:16.044Z,0
2017-03-01T00:11:31.298Z,0
2017-03-01T00:12:46.230Z,0
2017-03-01T00:14:00.660Z,0
2017-03-01T00:15:15.111Z,0
2017-03-01T00:16:28.865Z,0
2017-03-01T00:17:43.315Z,0
2017-03-01T00:18:58.146Z,0
2017-03-01T00:20:13.633Z,0
2017-03-01T00:21:28.659Z,0
2017-03-01T00:22:43.112Z,0
2017-03-01T00:23:57.542Z,0
2017-03-01T00:25:12.167Z,0
2017-03-01T00:26:26.617Z,0
2017-03-01T00:27:40.443Z,0
2017-03-01T00:28:57.104Z,0
2017-03-01T00:30:11.762Z,0
2017-03-01T00:31:26.948Z,0
2017-03-01T00:32:42.591Z,0
2017-03-01T00:33:57.740Z,0
2017-03-01T00:35:10.855Z,0
2017-03-01T00:36:25.267Z,0
2017-03-01T00:37:39.433Z,0
2017-03-01T00:38:55.008Z,0
2017-03-01T00:40:10.096Z,0
2017-03-01T00:41:24.765Z,0
2017-03-01T00:42:39.442Z,0
2017-03-01T00:43:53.424Z,0
2017-03-01T00:45:09.244Z,0
2017-03-01T00:46:23.976Z,0
2017-03-01T00:47:38.867Z,0
2017-03-01T00:48:52.646Z,0
2017-03-01T00:50:07.095Z,0
2017-03-01T00:51:20.063Z,0
2017-03-01T00:52:35.533Z,0
2017-03-01T00:53:49.944Z,0
2017-03-01T00:55:04.353Z,0
2017-03-01T00:56:18.834Z,0
2017-03-01T00:57:33.269Z,0
2017-03-01T00:58:48.299Z,0
2017-03-01T01:00:02.750Z,0
2017-03-01T01:01:17.207Z,0
2017-03-01T01:02:31.629Z,0
2017-03-01T01:03:46.468Z,0
2017-03-01T01:05:01.120Z,0
2017-03-01T01:06:15.700Z,0
2017-03-01T01:07:31.083Z,0
2017-03-01T01:08:46.331Z,0
2017-03-01T01:10:01.687Z,0
2017-03-01T01:11:16.595Z,0
2017-03-01T01:12:31.645Z,0
2017-03-01T01:13:46.089Z,0
2017-03-01T01:15:00.518Z,0
2017-03-01T01:16:14.861Z,0
2017-03-01T01:17:29.346Z,0
2017-03-01T01:18:43.847Z,0
2017-03-01T01:19:58.424Z,0
2017-03-01T01:21:12.837Z,0
2017-03-01T01:22:27.527Z,0
2017-03-01T01:23:41.494Z,0
2017-03-01T01:24:55.918Z,0
2017-03-01T01:26:10.327Z,0
2017-03-01T01:27:25.159Z,0
2017-03-01T01:28:39.870Z,0
2017-03-01T01:29:54.335Z,0
2017-03-01T01:31:09.795Z,0
2017-03-01T01:32:24.414Z,0
2017-03-01T01:33:39.895Z,0
2017-03-01T01:34:54.708Z,0
2017-03-01T01:36:09.896Z,0
2017-03-01T01:37:25.235Z,0
2017-03-01T01:38:39.699Z,0
2017-03-01T01:39:54.151Z,0
2017-03-01T01:41:07.939Z,0
2017-03-01T01:42:22.371Z,0
2017-03-01T01:43:36.144Z,0
2017-03-01T01:44:50.584Z,0
2017-03-01T01:46:05.036Z,0
2017-03-01T01:47:19.455Z,0
2017-03-01T01:48:33.860Z,0
2017-03-01T01:49:48.675Z,0
2017-03-01T01:51:03.287Z,0
2017-03-01T01:52:17.722Z,0
2017-03-01T01:53:32.183Z,0
2017-03-01T01:54:46.874Z,0
2017-03-01T01:56:01.782Z,0
2017-03-01T01:57:17.474Z,0
2017-03-01T01:58:32.580Z,0
2017-03-01T01:59:47.481Z,0
2017-03-01T02:01:03.358Z,0
2017-03-01T02:02:18.656Z,0
2017-03-01T02:03:33.860Z,0
2017-03-01T02:04:48.857Z,0
2017-03-01T02:06:03.343Z,0
2017-03-01T02:07:18.624Z,0
2017-03-01T02:08:33.713Z,0
2017-03-01T02:09:48.595Z,0
2017-03-01T02:11:03.893Z,0
2017-03-01T02:12:18.339Z,0
2017-03-01T02:13:33.289Z,0
2017-03-01T02:14:48.698Z,0
2017-03-01T02:16:03.607Z,0
2017-03-01T02:17:19.356Z,0
2017-03-01T02:18:34.969Z,0
2017-03-01T02:19:49.868Z,0
2017-03-01T02:21:05.939Z,0
2017-03-01T02:22:20.928Z,0
2017-03-01T02:23:35.383Z,0
2017-03-01T02:24:49.641Z,0
2017-03-01T02:26:04.688Z,0
2017-03-01T02:27:19.308Z,0
2017-03-01T02:28:34.980Z,0
2017-03-01T02:29:49.649Z,0
2017-03-01T02:31:05.152Z,0
2017-03-01T02:32:20.140Z,0
2017-03-01T02:33:35.810Z,0
2017-03-01T02:34:51.206Z,0
2017-03-01T02:36:06.710Z,0
2017-03-01T02:37:22.512Z,0
2017-03-01T02:38:36.946Z,0
2017-03-01T02:39:51.395Z,0
2017-03-01T02:41:05.194Z,0
2017-03-01T02:42:19.658Z,0
2017-03-01T02:43:34.088Z,0
2017-03-01T02:44:48.491Z,0
2017-03-01T02:46:03.294Z,0
2017-03-01T02:47:18.364Z,0
2017-03-01T02:48:33.209Z,0
2017-03-01T02:49:47.158Z,0
2017-03-01T02:51:01.579Z,0
2017-03-01T02:52:16.231Z,0
2017-03-01T02:53:31.165Z,0
2017-03-01T02:54:45.565Z,0
2017-03-01T02:55:59.990Z,0
2017-03-01T02:57:14.575Z,0
2017-03-01T02:58:28.991Z,0
2017-03-01T02:59:43.431Z,0
2017-03-01T03:00:57.852Z,0
2017-03-01T03:02:12.242Z,0
2017-03-01T03:03:26.636Z,0
2017-03-01T03:04:41.037Z,0
2017-03-01T03:05:55.441Z,0
2017-03-01T03:07:09.858Z,0
2017-03-01T03:08:24.250Z,0
2017-03-01T03:09:38.660Z,0
2017-03-01T03:10:53.060Z,0
2017-03-01T03:12:07.531Z,0
2017-03-01T03:13:21.384Z,0
2017-03-01T03:14:35.206Z,0
2017-03-01T03:15:49.614Z,0
2017-03-01T03:17:04.058Z,0
2017-03-01T03:18:18.488Z,0
2017-03-01T03:19:32.909Z,0
2017-03-01T03:20:47.368Z,0
2017-03-01T03:22:01.777Z,0
2017-03-01T03:23:16.152Z,0
2017-03-01T03:24:29.294Z,0
2017-03-01T03:25:43.731Z,0
2017-03-01T03:26:58.154Z,0
2017-03-01T03:28:12.595Z,0
2017-03-01T03:29:27.031Z,0
2017-03-01T03:30:41.448Z,0
2017-03-01T03:31:55.876Z,0
2017-03-01T03:33:10.329Z,0
2017-03-01T03:34:24.735Z,0
2017-03-01T03:35:39.220Z,0
2017-03-01T03:36:53.046Z,0
2017-03-01T03:38:07.468Z,0
2017-03-01T03:39:21.906Z,0
2017-03-01T03:40:35.658Z,0
2017-03-01T03:41:50.070Z,0
2017-03-01T03:43:04.527Z,0
2017-03-01T03:44:18.341Z,0
2017-03-01T03:45:32.878Z,0
2017-03-01T03:46:47.306Z,0
2017-03-01T03:48:01.702Z,0
2017-03-01T03:49:16.128Z,0
2017-03-01T03:50:30.071Z,0
2017-03-01T03:51:43.857Z,0
2017-03-01T03:52:58.334Z,0
2017-03-01T03:54:12.073Z,0
2017-03-01T03:55:26.490Z,0
2017-03-01T03:56:40.262Z,0
2017-03-01T03:57:54.691Z,0
2017-03-01T03:59:09.123Z,0
2017-03-01T04:00:23.560Z,0
2017-03-01T04:01:37.324Z,0
2017-03-01T04:02:51.738Z,0
2017-03-01T04:04:06.146Z,0
2017-03-01T04:05:19.937Z,0
2017-03-01T04:06:34.379Z,0
2017-03-01T04:07:48.799Z,0
2017-03-01T04:09:02.603Z,0
2017-03-01T04:10:16.997Z,0
2017-03-01T04:11:31.406Z,0
2017-03-01T04:12:45.177Z,0
2017-03-01T04:13:58.918Z,0
2017-03-01T04:15:13.332Z,0
2017-03-01T04:16:27.741Z,0
2017-03-01T04:17:42.155Z,0
2017-03-01T04:18:56.555Z,0
2017-03-01T04:20:10.338Z,0
2017-03-01T04:21:24.785Z,0
2017-03-01T04:22:39.173Z,0
2017-03-01T04:23:53.592Z,0
2017-03-01T04:25:08.024Z,0
2017-03-01T04:26:21.767Z,0
2017-03-01T04:27:36.211Z,0
2017-03-01T04:29:09.259Z,0
2017-03-01T04:30:23.647Z,0
2017-03-01T04:31:37.404Z,0
2017-03-01T04:32:51.135Z,0
2017-03-01T04:34:05.566Z,0
2017-03-01T04:35:25.649Z,0
2017-03-01T04:36:40.066Z,0
2017-03-01T04:37:54.482Z,0
2017-03-01T04:39:08.907Z,0
2017-03-01T04:40:23.330Z,0
2017-03-01T04:41:37.084Z,0
2017-03-01T04:42:51.530Z,0
2017-03-01T04:44:05.985Z,0
2017-03-01T04:45:20.378Z,0
2017-03-01T04:46:34.154Z,0
2017-03-01T04:47:48.599Z,0
2017-03-01T04:49:03.009Z,0
2017-03-01T04:50:17.435Z,0
2017-03-01T04:51:31.837Z,0
2017-03-01T04:52:45.206Z,0
2017-03-01T04:53:59.704Z,0
2017-03-01T04:55:14.131Z,0
2017-03-01T04:56:28.584Z,0
2017-03-01T04:57:43.028Z,0
2017-03-01T04:58:56.777Z,0
2017-03-01T05:00:11.257Z,0
2017-03-01T05:01:25.682Z,0
2017-03-01T05:02:40.437Z,0
2017-03-01T05:03:54.329Z,0
2017-03-01T05:05:08.141Z,0
2017-03-01T05:06:22.596Z,0
2017-03-01T05:07:37.011Z,0
2017-03-01T05:08:50.792Z,0
2017-03-01T05:10:05.220Z,0
2017-03-01T05:11:18.987Z,0
2017-03-01T05:12:33.388Z,0
2017-03-01T05:13:47.813Z,0
2017-03-01T05:15:02.201Z,0
2017-03-01T05:16:16.563Z,0
2017-03-01T05:17:30.960Z,0
2017-03-01T05:18:44.748Z,0
2017-03-01T05:19:59.163Z,0
2017-03-01T05:21:13.633Z,0
2017-03-01T05:22:27.427Z,0
2017-03-01T05:23:41.199Z,0
2017-03-01T05:24:54.973Z,0
2017-03-01T05:26:09.384Z,0
2017-03-01T05:27:23.845Z,0
2017-03-01T05:28:38.308Z,0
2017-03-01T05:29:52.721Z,0
2017-03-01T05:31:07.120Z,0
2017-03-01T05:32:21.532Z,0
2017-03-01T05:33:35.927Z,0
2017-03-01T05:34:49.688Z,0
2017-03-01T05:36:04.143Z,0
2017-03-01T05:37:18.539Z,0
2017-03-01T05:38:32.936Z,0
2017-03-01T05:39:47.332Z,0
2017-03-01T05:41:01.759Z,0
2017-03-01T05:42:16.169Z,0
2017-03-01T05:43:29.316Z,0
2017-03-01T05:44:43.737Z,0
2017-03-01T05:45:58.166Z,0
2017-03-01T05:47:12.600Z,0
2017-03-01T05:48:27.023Z,0
2017-03-01T05:49:41.410Z,0
2017-03-01T05:50:55.837Z,0
2017-03-01T05:52:10.245Z,0
2017-03-01T05:53:24.666Z,0
2017-03-01T05:54:39.122Z,0
2017-03-01T05:55:53.521Z,0
2017-03-01T05:57:07.952Z,0
2017-03-01T05:58:22.351Z,0
2017-03-01T05:59:36.779Z,0
2017-03-01T06:00:51.194Z,0
2017-03-01T06:02:05.633Z,0
2017-03-01T06:03:20.099Z,0
2017-03-01T06:04:34.522Z,0
2017-03-01T06:05:48.974Z,0
2017-03-01T06:07:03.450Z,0
2017-03-01T06:08:17.891Z,0
2017-03-01T06:09:32.321Z,0
2017-03-01T06:10:46.091Z,0
2017-03-01T06:12:00.532Z,0
2017-03-01T06:13:14.997Z,0
2017-03-01T06:14:28.776Z,0
2017-03-01T06:15:41.908Z,0
2017-03-01T06:16:56.389Z,0
2017-03-01T06:18:10.818Z,0
2017-03-01T06:19:24.601Z,0
2017-03-01T06:20:39.016Z,0
2017-03-01T06:21:53.426Z,0
2017-03-01T06:23:07.820Z,0
2017-03-01T06:24:22.272Z,0
2017-03-01T06:25:36.060Z,0
2017-03-01T06:26:50.386Z,0
2017-03-01T06:28:04.128Z,0
2017-03-01T06:29:18.552Z,0
2017-03-01T06:30:32.316Z,0
2017-03-01T06:31:46.736Z,0
2017-03-01T06:33:01.166Z,0
2017-03-01T06:34:14.958Z,0
2017-03-01T06:35:29.413Z,0
2017-03-01T06:36:43.804Z,0
2017-03-01T06:37:57.586Z,0
2017-03-01T06:39:11.982Z,0
2017-03-01T06:40:26.414Z,0
2017-03-01T06:41:40.829Z,0
2017-03-01T06:42:55.230Z,0
2017-03-01T06:44:09.641Z,0
2017-03-01T06:45:23.434Z,0
2017-03-01T06:46:37.217Z,0
2017-03-01T06:47:50.994Z,0
2017-03-01T06:49:05.444Z,0
2017-03-01T06:50:19.254Z,0
2017-03-01T06:51:33.020Z,0
2017-03-01T06:52:47.425Z,0
2017-03-01T06:54:01.858Z,0
2017-03-01T06:55:16.316Z,0
2017-03-01T06:56:30.711Z,0
2017-03-01T06:57:45.169Z,0
2017-03-01T06:58:58.930Z,0
2017-03-01T07:00:13.346Z,0
2017-03-01T07:01:27.821Z,0
2017-03-01T07:02:41.579Z,0
2017-03-01T07:03:55.991Z,0
2017-03-01T07:05:10.393Z,0
2017-03-01T07:06:24.805Z,0
2017-03-01T07:07:39.230Z,0
2017-03-01T07:08:53.690Z,0
2017-03-01T07:10:08.117Z,0
2017-03-01T07:11:21.908Z,0
2017-03-01T07:12:36.354Z,0
2017-03-01T07:13:50.774Z,0
2017-03-01T07:15:04.545Z,0
2017-03-01T07:16:18.950Z,0
2017-03-01T07:17:32.726Z,0
2017-03-01T07:18:47.183Z,0
2017-03-01T07:20:01.647Z,0
2017-03-01T07:21:16.099Z,0
2017-03-01T07:22:30.542Z,0
2017-03-01T07:23:44.959Z,0
2017-03-01T07:24:59.400Z,0
2017-03-01T07:26:13.809Z,0
2017-03-01T07:27:27.606Z,0
2017-03-01T07:28:42.049Z,0
2017-03-01T07:29:56.431Z,0
2017-03-01T07:31:10.824Z,0
2017-03-01T07:32:24.587Z,0
2017-03-01T07:33:38.361Z,0
2017-03-01T07:34:52.835Z,0
2017-03-01T07:36:07.262Z,0
2017-03-01T07:37:21.659Z,0
2017-03-01T07:38:36.084Z,0
2017-03-01T07:39:49.891Z,0
2017-03-01T07:41:04.293Z,0
2017-03-01T07:42:18.690Z,0
2017-03-01T07:43:31.818Z,0
2017-03-01T07:44:46.261Z,0
2017-03-01T07:46:00.634Z,0
2017-03-01T07:47:15.058Z,0
2017-03-01T07:48:29.458Z,0
2017-03-01T07:49:43.230Z,0
2017-03-01T07:50:57.639Z,0
2017-03-01T07:52:11.457Z,0
2017-03-01T07:53:25.855Z,0
2017-03-01T07:54:40.327Z,0
2017-03-01T07:55:54.098Z,0
2017-03-01T07:57:08.534Z,0
2017-03-01T07:58:22.921Z,0
2017-03-01T07:59:36.691Z,0
2017-03-01T08:00:51.168Z,0
2017-03-01T08:02:04.339Z,0
2017-03-01T08:03:18.729Z,0
2017-03-01T08:04:32.544Z,0
2017-03-01T08:05:46.328Z,0
2017-03-01T08:07:00.738Z,0
2017-03-01T08:08:15.172Z,0
2017-03-01T08:09:29.552Z,0
2017-03-01T08:10:43.320Z,0
2017-03-01T08:11:57.772Z,0
2017-03-01T08:13:12.199Z,0
2017-03-01T08:14:25.326Z,0
2017-03-01T08:15:39.113Z,0
2017-03-01T08:16:52.230Z,0
2017-03-01T08:18:06.614Z,0
2017-03-01T08:19:21.012Z,0
2017-03-01T08:20:34.826Z,0
2017-03-01T08:21:48.583Z,0
2017-03-01T08:23:02.970Z,0
2017-03-01T08:24:16.814Z,0
2017-03-01T08:25:30.588Z,0
2017-03-01T08:26:44.991Z,0
2017-03-01T08:27:59.382Z,0
2017-03-01T08:29:13.791Z,0
2017-03-01T08:30:28.234Z,0
2017-03-01T08:31:42.649Z,0
2017-03-01T08:32:56.406Z,0
2017-03-01T08:34:10.791Z,0
2017-03-01T08:35:25.227Z,0
2017-03-01T08:36:39.657Z,0
2017-03-01T08:37:54.068Z,0
2017-03-01T08:39:08.525Z,4
2017-03-01T08:40:22.984Z,4
2017-03-01T08:41:37.418Z,4
2017-03-01T08:42:51.814Z,8
2017-03-01T08:44:06.236Z,8
2017-03-01T08:45:20.627Z,12
2017-03-01T08:46:35.051Z,16
2017-03-01T08:47:49.476Z,24
2017-03-01T08:49:03.950Z,36
2017-03-01T08:50:18.369Z,48
2017-03-01T08:51:32.793Z,68
2017-03-01T08:52:46.563Z,88
2017-03-01T08:54:00.359Z,116
2017-03-01T08:55:14.171Z,156
2017-03-01T08:56:27.940Z,208
2017-03-01T08:57:42.336Z,244
2017-03-01T08:58:56.753Z,256
2017-03-01T09:00:10.491Z,300
2017-03-01T09:01:24.954Z,364
2017-03-01T09:02:38.761Z,428
2017-03-01T09:03:53.193Z,504
2017-03-01T09:05:07.610Z,596
2017-03-01T09:06:22.011Z,704
2017-03-01T09:07:35.788Z,836
2017-03-01T09:08:50.187Z,968
2017-03-01T09:10:04.693Z,1104
2017-03-01T09:11:19.109Z,1252
2017-03-01T09:12:33.508Z,1412
2017-03-01T09:13:47.316Z,1580
2017-03-01T09:15:01.722Z,1772
2017-03-01T09:16:14.852Z,1976
2017-03-01T09:17:28.632Z,2208
2017-03-01T09:18:43.007Z,2472
2017-03-01T09:19:57.386Z,2780
2017-03-01T09:21:11.786Z,3172
2017-03-01T09:22:26.209Z,3648
2017-03-01T09:23:40.666Z,4248
2017-03-01T09:24:55.062Z,4780
2017-03-01T09:26:09.518Z,5308
2017-03-01T09:27:23.909Z,5608
2017-03-01T09:28:37.657Z,6408
2017-03-01T09:29:52.053Z,6936
2017-03-01T09:31:06.484Z,6836
2017-03-01T09:32:20.872Z,6516
2017-03-01T09:33:35.262Z,6772
2017-03-01T09:34:49.038Z,8660
2017-03-01T09:36:03.429Z,10032
2017-03-01T09:37:17.183Z,11016
2017-03-01T09:38:31.605Z,11892
2017-03-01T09:39:45.401Z,12316
2017-03-01T09:40:59.825Z,12724
2017-03-01T09:42:12.955Z,14272
2017-03-01T09:43:26.722Z,14496
2017-03-01T09:44:41.196Z,15392
2017-03-01T09:45:54.942Z,16736
2017-03-01T09:47:08.068Z,16928
2017-03-01T09:48:22.469Z,17856
2017-03-01T09:49:35.589Z,17728
2017-03-01T09:50:49.996Z,19040
2017-03-01T09:52:04.468Z,20064
2017-03-01T09:53:18.273Z,21024
2017-03-01T09:54:32.674Z,22240
2017-03-01T09:55:45.855Z,22944
2017-03-01T09:56:59.612Z,23424
2017-03-01T09:58:13.362Z,23808
2017-03-01T09:59:27.770Z,24448
2017-03-01T10:00:42.164Z,25376
2017-03-01T10:01:56.598Z,25504
2017-03-01T10:03:11.016Z,24640
2017-03-01T10:04:25.439Z,25088
2017-03-01T10:05:39.877Z,28000
2017-03-01T10:06:53.652Z,30016
2017-03-01T10:08:07.441Z,31264
2017-03-01T10:09:21.875Z,31872
2017-03-01T10:10:35.679Z,32384
2017-03-01T10:11:50.115Z,33344
2017-03-01T10:13:03.873Z,34656
2017-03-01T10:14:18.277Z,34912
2017-03-01T10:15:32.673Z,36160
2017-03-01T10:16:47.075Z,37056
2017-03-01T10:18:01.509Z,38176
2017-03-01T10:19:15.293Z,38272
2017-03-01T10:20:29.714Z,39424
2017-03-01T10:21:44.122Z,40640
2017-03-01T10:22:58.533Z,43200
2017-03-01T10:24:12.312Z,42048
2017-03-01T10:25:26.735Z,43968
2017-03-01T10:26:40.525Z,45216
2017-03-01T10:27:54.984Z,44672
2017-03-01T10:29:08.791Z,45056
2017-03-01T10:30:23.172Z,45408
2017-03-01T10:31:35.641Z,46112
2017-03-01T10:32:49.414Z,46240
2017-03-01T10:34:03.898Z,47520
2017-03-01T10:35:18.318Z,48384
2017-03-01T10:36:32.739Z,50208
2017-03-01T10:37:46.483Z,50912
2017-03-01T10:39:00.241Z,50752
2017-03-01T10:40:14.006Z,52672
2017-03-01T10:41:28.481Z,52352
2017-03-01T10:42:42.291Z,53440
2017-03-01T10:43:56.036Z,53920
2017-03-01T10:45:10.494Z,55744
2017-03-01T10:46:25.003Z,55936
2017-03-01T10:47:39.449Z,57984
2017-03-01T10:48:53.904Z,58848
2017-03-01T10:50:07.033Z,59040
2017-03-01T10:51:20.840Z,58496
2017-03-01T10:52:35.271Z,59392
2017-03-01T10:53:49.649Z,59872
2017-03-01T10:55:04.052Z,60640
2017-03-01T10:56:18.453Z,58720
2017-03-01T10:57:32.895Z,61888
2017-03-01T10:58:47.317Z,58752
2017-03-01T11:00:01.754Z,60640
2017-03-01T11:01:15.518Z,60608
2017-03-01T11:02:29.992Z,61632
2017-03-01T11:03:44.515Z,60352
2017-03-01T11:04:58.952Z,62048
2017-03-01T11:06:13.402Z,59584
2017-03-01T11:07:27.198Z,57248
2017-03-01T11:08:41.618Z,55680
2017-03-01T11:09:56.001Z,56800
2017-03-01T11:11:09.810Z,64000
2017-03-01T11:12:24.202Z,64704
2017-03-01T11:13:38.588Z,64992
2017-03-01T11:14:53.030Z,66528
2017-03-01T11:16:07.466Z,68704
2017-03-01T11:17:21.884Z,69984
2017-03-01T11:18:36.308Z,63520
2017-03-01T11:19:50.725Z,62144
2017-03-01T11:21:05.108Z,67072
2017-03-01T11:22:18.863Z,69024
2017-03-01T11:23:32.651Z,66560
2017-03-01T11:24:47.063Z,68448
2017-03-01T11:26:01.471Z,68640
2017-03-01T11:27:16.326Z,50496
2017-03-01T11:28:30.722Z,58624
2017-03-01T11:29:45.141Z,74400
2017-03-01T11:30:59.568Z,73088
2017-03-01T11:32:13.361Z,73088
2017-03-01T11:33:27.779Z,73568
2017-03-01T11:34:42.240Z,66688
2017-03-01T11:35:55.345Z,69728
2017-03-01T11:37:09.093Z,78816
2017-03-01T11:38:23.523Z,77696
2017-03-01T11:39:37.286Z,70976
2017-03-01T11:40:51.698Z,70528
2017-03-01T11:42:06.166Z,70304
2017-03-01T11:43:20.603Z,85216
2017-03-01T11:44:33.723Z,90816
2017-03-01T11:45:48.171Z,82720
2017-03-01T11:47:02.594Z,72352
2017-03-01T11:48:15.719Z,67232
2017-03-01T11:49:29.536Z,69248
2017-03-01T11:50:43.974Z,75456
2017-03-01T11:51:57.795Z,72032
2017-03-01T11:53:12.210Z,59552
2017-03-01T11:54:26.632Z,56736
2017-03-01T11:55:40.384Z,55328
2017-03-01T11:56:54.161Z,58528
2017-03-01T11:58:08.565Z,63456
2017-03-01T11:59:23.039Z,69184
2017-03-01T12:00:36.856Z,73952
2017-03-01T12:01:51.306Z,79104
2017-03-01T12:03:05.751Z,80032
2017-03-01T12:04:19.558Z,79904
2017-03-01T12:05:33.359Z,84512
2017-03-01T12:06:47.149Z,84992
2017-03-01T12:08:01.587Z,91392
2017-03-01T12:09:16.059Z,84960
2017-03-01T12:10:29.878Z,69792
2017-03-01T12:11:43.699Z,81952
2017-03-01T12:12:57.519Z,91136
2017-03-01T12:14:11.505Z,101344
2017-03-01T12:15:26.002Z,99232
2017-03-01T12:16:40.526Z,118048
2017-03-01T12:17:55.015Z,115264
2017-03-01T12:19:07.547Z,106944
2017-03-01T12:20:21.984Z,101472
2017-03-01T12:21:36.436Z,98464
2017-03-01T12:22:50.903Z,101376
2017-03-01T12:24:05.367Z,89472
2017-03-01T12:25:19.179Z,88544
2017-03-01T12:26:33.637Z,96256
2017-03-01T12:27:48.103Z,96640
2017-03-01T12:29:01.943Z,98400
2017-03-01T12:30:16.408Z,100192
2017-03-01T12:31:30.214Z,103072
2017-03-01T12:32:44.697Z,90560
2017-03-01T12:33:58.504Z,88960
2017-03-01T12:35:12.974Z,96224
2017-03-01T12:36:27.432Z,98112
2017-03-01T12:37:41.278Z,96736
2017-03-01T12:38:55.736Z,95136
2017-03-01T12:40:08.892Z,97856
2017-03-01T12:41:23.383Z,96928
2017-03-01T12:42:37.860Z,103360
2017-03-01T12:44:10.312Z,88448
2017-03-01T12:45:24.778Z,96672
2017-03-01T12:46:39.256Z,93056
2017-03-01T12:47:53.049Z,91200
2017-03-01T12:49:07.507Z,99616
2017-03-01T12:50:21.945Z,100128
2017-03-01T12:51:36.377Z,101472
2017-03-01T12:52:50.197Z,101120
2017-03-01T12:54:04.651Z,102592
2017-03-01T12:55:18.453Z,94976
2017-03-01T12:56:32.291Z,80416
2017-03-01T12:57:46.771Z,91584
2017-03-01T12:59:01.259Z,94048
2017-03-01T13:00:15.066Z,97376
2017-03-01T13:01:28.839Z,109760
2017-03-01T13:02:43.273Z,109216
2017-03-01T13:03:57.693Z,110784
2017-03-01T13:05:12.118Z,114144
2017-03-01T13:06:25.882Z,118624
2017-03-01T13:07:40.327Z,116064
2017-03-01T13:08:54.735Z,120832
2017-03-01T13:10:07.933Z,120128
2017-03-01T13:11:22.387Z,128352
2017-03-01T13:12:35.525Z,130784
2017-03-01T13:13:48.675Z,135744
2017-03-01T13:15:03.125Z,140928
2017-03-01T13:16:16.264Z,137888
2017-03-01T13:17:30.688Z,140128
2017-03-01T13:18:45.140Z,134912
2017-03-01T13:19:58.320Z,132512
2017-03-01T13:21:11.460Z,135520
2017-03-01T13:22:25.901Z,54080
2017-03-01T13:23:39.085Z,135616
2017-03-01T13:24:52.230Z,140448
2017-03-01T13:26:06.707Z,134816
2017-03-01T13:27:21.199Z,132928
2017-03-01T13:28:34.976Z,141664
2017-03-01T13:29:49.413Z,147008
2017-03-01T13:31:03.864Z,118432
2017-03-01T13:32:17.634Z,58528
2017-03-01T13:33:32.059Z,37440
2017-03-01T13:34:46.504Z,40448
2017-03-01T13:36:00.928Z,112608
2017-03-01T13:37:15.338Z,121792
2017-03-01T13:38:29.792Z,131840
2017-03-01T13:39:44.228Z,44064
2017-03-01T13:40:57.386Z,79616
2017-03-01T13:42:11.789Z,142496
2017-03-01T13:43:26.261Z,145376
2017-03-01T13:44:40.067Z,125568
2017-03-01T13:45:53.215Z,58528
2017-03-01T13:47:07.647Z,149248
2017-03-01T13:48:22.065Z,151360
2017-03-01T13:49:35.845Z,147808
2017-03-01T13:50:50.321Z,62656
2017-03-01T13:52:04.790Z,66048
2017-03-01T13:53:17.892Z,41344
2017-03-01T13:54:31.638Z,34656
2017-03-01T13:55:46.043Z,55808
2017-03-01T13:57:00.483Z,90848
2017-03-01T13:58:14.266Z,42528
2017-03-01T13:59:28.706Z,134720
2017-03-01T14:00:42.519Z,31072
2017-03-01T14:01:56.958Z,31744
2017-03-01T14:03:11.403Z,31072
2017-03-01T14:04:25.201Z,43584
2017-03-01T14:05:38.972Z,79424
2017-03-01T14:06:52.781Z,38144
2017-03-01T14:08:07.210Z,141632
2017-03-01T14:09:21.003Z,32416
2017-03-01T14:10:35.389Z,34560
2017-03-01T14:11:48.522Z,40928
2017-03-01T14:13:02.322Z,40448
2017-03-01T14:14:15.510Z,133792
2017-03-01T14:15:29.924Z,145152
2017-03-01T14:16:43.081Z,37024
2017-03-01T14:17:56.854Z,143552
2017-03-01T14:19:10.635Z,140128
2017-03-01T14:20:23.138Z,142080
2017-03-01T14:21:36.984Z,45056
2017-03-01T14:22:51.404Z,145632
2017-03-01T14:24:05.863Z,45984
2017-03-01T14:25:19.042Z,126528
2017-03-01T14:26:33.467Z,36640
2017-03-01T14:27:47.877Z,41504
2017-03-01T14:29:02.289Z,132192
2017-03-01T14:30:16.730Z,33408
2017-03-01T14:31:30.519Z,31936
2017-03-01T14:32:44.938Z,133696
2017-03-01T14:33:58.754Z,35648
2017-03-01T14:35:13.212Z,115584
2017-03-01T14:36:26.979Z,117344
2017-03-01T14:37:41.426Z,124960
2017-03-01T14:38:55.217Z,127328
2017-03-01T14:40:09.026Z,42400
2017-03-01T14:41:23.454Z,137568
2017-03-01T14:42:37.200Z,135840
2017-03-01T14:43:51.617Z,138752
2017-03-01T14:45:05.412Z,137952
2017-03-01T14:46:19.294Z,36032
2017-03-01T14:47:32.464Z,33984
2017-03-01T14:48:46.222Z,142528
2017-03-01T14:50:00.679Z,150880
2017-03-01T14:51:15.131Z,40800
2017-03-01T14:52:28.907Z,145376
2017-03-01T14:53:42.645Z,37632
2017-03-01T14:54:57.089Z,38784
2017-03-01T14:56:11.538Z,71296
2017-03-01T14:57:25.341Z,58880
2017-03-01T14:58:39.148Z,57568
2017-03-01T14:59:52.922Z,152864
2017-03-01T15:01:07.365Z,147392
2017-03-01T15:02:21.784Z,141696
2017-03-01T15:03:36.222Z,61056
2017-03-01T15:04:49.362Z,48704
2017-03-01T15:06:03.789Z,96160
2017-03-01T15:07:17.538Z,96608
2017-03-01T15:08:31.307Z,133568
2017-03-01T15:09:45.098Z,147968
2017-03-01T15:10:59.551Z,144896
2017-03-01T15:12:14.002Z,143040
2017-03-01T15:13:28.387Z,134752
2017-03-01T15:14:42.824Z,131840
2017-03-01T15:15:57.226Z,144288
2017-03-01T15:17:11.656Z,144672
2017-03-01T15:18:25.426Z,140032
2017-03-01T15:19:39.185Z,136192
2017-03-01T15:20:52.333Z,138528
2017-03-01T15:22:06.160Z,143680
2017-03-01T15:23:19.942Z,140960
2017-03-01T15:24:34.398Z,142752
2017-03-01T15:25:48.851Z,109984
2017-03-01T15:27:02.633Z,140992
2017-03-01T15:28:15.816Z,142848
2017-03-01T15:29:28.345Z,136960
2017-03-01T15:30:42.200Z,36576
2017-03-01T15:31:56.054Z,34496
2017-03-01T15:33:09.814Z,119264
2017-03-01T15:34:23.008Z,148416
2017-03-01T15:35:36.167Z,83776
2017-03-01T15:36:49.941Z,50176
2017-03-01T15:38:04.448Z,139776
2017-03-01T15:39:18.840Z,136000
2017-03-01T15:40:32.654Z,131680
2017-03-01T15:41:47.064Z,140448
2017-03-01T15:43:01.529Z,133952
2017-03-01T15:44:15.938Z,138016
2017-03-01T15:45:30.400Z,137728
2017-03-01T15:46:44.847Z,134272
2017-03-01T15:47:58.614Z,138656
2017-03-01T15:49:13.052Z,136608
2017-03-01T15:50:26.243Z,119552
2017-03-01T15:51:40.757Z,135360
2017-03-01T15:52:55.188Z,136352
2017-03-01T15:54:09.627Z,132800
2017-03-01T15:55:24.065Z,128896
2017-03-01T15:56:37.840Z,133024
2017-03-01T15:57:52.267Z,130496
2017-03-01T15:59:06.063Z,128320
2017-03-01T16:00:20.471Z,126016
2017-03-01T16:01:34.275Z,39392
2017-03-01T16:02:47.405Z,128768
2017-03-01T16:04:01.820Z,111744
2017-03-01T16:05:15.654Z,103936
2017-03-01T16:06:30.046Z,104832
2017-03-01T16:07:43.204Z,106016
2017-03-01T16:08:57.642Z,110400
2017-03-01T16:10:12.145Z,107488
2017-03-01T16:11:26.605Z,106944
2017-03-01T16:12:41.009Z,111200
2017-03-01T16:13:54.762Z,114496
2017-03-01T16:15:08.563Z,117600
2017-03-01T16:16:23.030Z,124768
2017-03-01T16:17:37.469Z,128064
2017-03-01T16:18:51.839Z,130048
2017-03-01T16:20:05.622Z,127008
2017-03-01T16:21:19.393Z,124224
2017-03-01T16:22:32.522Z,122656
2017-03-01T16:23:46.919Z,119040
2017-03-01T16:25:01.409Z,121888
2017-03-01T16:26:15.869Z,126624
2017-03-01T16:27:30.277Z,128800
2017-03-01T16:28:44.752Z,28896
2017-03-01T16:29:59.194Z,32448
2017-03-01T16:31:13.632Z,30240
2017-03-01T16:32:28.094Z,31552
2017-03-01T16:33:42.491Z,132544
2017-03-01T16:34:56.304Z,125248
2017-03-01T16:36:10.694Z,130848
2017-03-01T16:37:24.462Z,30048
2017-03-01T16:38:38.887Z,26624
2017-03-01T16:39:52.712Z,27104
2017-03-01T16:41:06.502Z,120288
2017-03-01T16:42:20.946Z,133728
2017-03-01T16:43:35.386Z,113440
2017-03-01T16:44:49.837Z,112448
2017-03-01T16:46:04.272Z,132736
2017-03-01T16:47:18.031Z,122912
2017-03-01T16:48:31.841Z,119904
2017-03-01T16:49:46.263Z,117632
2017-03-01T16:51:00.674Z,114240
2017-03-01T16:52:15.061Z,112160
2017-03-01T16:53:29.507Z,112544
2017-03-01T16:54:43.973Z,110176
2017-03-01T16:55:58.407Z,115424
2017-03-01T16:57:12.847Z,116576
2017-03-01T16:58:27.262Z,116416
2017-03-01T16:59:41.259Z,44096
2017-03-01T17:00:55.691Z,116736